You are not logged in, Click here to log in
邁阿密國際機場MIA / KMIA 美國佛羅里達州邁阿密市中心西北13公里
ICAO: KMIA Country: 美國佛羅里達州邁阿密市中心西北13公里
Latitude: 25.7959 Longitude: -80.287
Total Arrivals: 26 Total Departures: 27
Latest Arrival: CX3272 (KDFW-KMIA)KE. CHIH-HAO Latest Departure: CX3272 (KMIA-KIAH)KE. CHIH-HAO
Scenery:
METAR : KMIA 190253Z 10011KT 10SM SCT020 26/21 A3013 RMK AO2 SLP202 T02560211 50004

邁阿密國際機場MIA

You are accessing this site from IP address 35.175.113.29. Virtual Airline. CMS by phpVMS.Website designed by Zumeweb and edited by Theo Bearman.
There is 0 User(s) Online: | and 11 Guest(s) Online.
All information on this site is for fight simulation purposes only. This site is for flight logging for pilots of Virtual Airline&模擬飛行論壇 FlySim only.